Time;durP1;ratioP1;P1;durP2;ratioP2;P2;SDS_P1;SDS_P2;PMS_P1;PMS_P2;Temp;Humidity;BMP_temperature;BMP_pressure;BME280_temperature;BME280_humidity;BME280_pressure;Samples;Min_cycle;Max_cycle;Signal;HPM_P1;HPM_P2
2022/04/23 00:02:27;;;;;;;34.67;12.45;;;14.10;99.90;;;;;;5054160;28;20068;-73
2022/04/23 00:04:56;;;;;;;36.85;13.30;;;14.10;99.90;;;;;;5071818;28;20067;-73
2022/04/23 00:07:23;;;;;;;27.33;9.70;;;14.00;99.90;;;;;;5071711;28;20064;-75
2022/04/23 00:09:51;;;;;;;34.70;12.95;;;14.00;99.90;;;;;;5100098;28;20041;-73
2022/04/23 00:12:19;;;;;;;36.08;12.05;;;14.00;99.90;;;;;;5072275;28;20055;-73
2022/04/23 00:14:47;;;;;;;29.35;8.95;;;14.10;99.90;;;;;;5085672;28;20052;-73
2022/04/23 00:17:15;;;;;;;27.23;10.25;;;14.10;99.90;;;;;;5084617;28;20394;-74
2022/04/23 00:19:44;;;;;;;28.42;8.15;;;14.10;99.90;;;;;;5086658;28;20149;-74
2022/04/23 00:22:11;;;;;;;34.28;10.13;;;14.20;99.90;;;;;;5087574;28;20109;-73
2022/04/23 00:24:39;;;;;;;29.55;9.45;;;14.30;99.90;;;;;;5069654;28;20576;-73
2022/04/23 00:27:06;;;;;;;31.42;7.93;;;14.40;99.90;;;;;;5084555;28;20047;-73
2022/04/23 00:29:35;;;;;;;23.10;7.70;;;14.40;99.90;;;;;;5069855;28;20039;-73
2022/04/23 00:32:03;;;;;;;27.27;8.77;;;14.30;99.90;;;;;;5088669;28;20048;-73
2022/04/23 00:34:31;;;;;;;28.83;10.75;;;14.30;99.90;;;;;;5063096;28;20821;-72
2022/04/23 00:36:59;;;;;;;30.30;9.20;;;14.30;99.90;;;;;;5061631;28;20043;-73
2022/04/23 00:39:26;;;;;;;36.38;11.02;;;14.30;99.90;;;;;;5106896;28;20055;-72
2022/04/23 00:41:57;;;;;;;30.40;10.35;;;14.30;99.90;;;;;;5086355;28;20486;-73
2022/04/23 00:44:25;;;;;;;17.58;7.00;;;14.20;99.90;;;;;;5087414;28;20048;-73
2022/04/23 00:46:52;;;;;;;29.45;8.82;;;14.20;99.90;;;;;;5057055;28;20040;-73
2022/04/23 00:49:19;;;;;;;29.35;8.43;;;14.20;99.90;;;;;;5097256;28;20054;-73
2022/04/23 00:51:48;;;;;;;22.40;6.50;;;14.30;99.90;;;;;;5053107;28;20043;-73
2022/04/23 00:54:16;;;;;;;16.92;8.63;;;14.40;99.90;;;;;;5102656;28;20059;-73
2022/04/23 00:56:43;;;;;;;19.90;6.75;;;14.40;99.90;;;;;;5071095;28;20441;-75
2022/04/23 00:59:12;;;;;;;20.13;6.68;;;14.40;99.90;;;;;;5099146;28;20108;-73
2022/04/23 01:01:41;;;;;;;32.58;9.18;;;14.50;99.90;;;;;;5081035;28;20398;-75
2022/04/23 01:04:12;;;;;;;23.10;6.03;;;14.50;99.90;;;;;;5036518;28;20049;-74
2022/04/23 01:06:43;;;;;;;18.60;5.97;;;14.60;99.90;;;;;;5086107;28;20774;-75
2022/04/23 01:09:11;;;;;;;18.80;5.53;;;14.60;99.90;;;;;;5068481;28;20056;-76
2022/04/23 01:11:39;;;;;;;18.63;6.07;;;14.60;99.90;;;;;;5076195;28;20476;-74
2022/04/23 01:14:07;;;;;;;19.00;6.40;;;14.70;99.90;;;;;;5064439;28;20051;-74
2022/04/23 01:16:34;;;;;;;15.40;4.45;;;14.80;99.90;;;;;;5038824;28;20049;-74
2022/04/23 01:19:03;;;;;;;18.20;4.30;;;14.90;99.90;;;;;;5055083;28;20040;-74
2022/04/23 01:21:30;;;;;;;15.88;5.32;;;14.90;99.90;;;;;;5062785;28;20121;-75
2022/04/23 01:23:58;;;;;;;15.82;4.63;;;15.00;99.90;;;;;;5084015;28;20578;-74
2022/04/23 01:26:28;;;;;;;12.32;4.93;;;15.10;99.90;;;;;;5056575;28;20093;-74
2022/04/23 01:28:57;;;;;;;13.85;4.22;;;15.20;99.90;;;;;;5061176;28;20111;-74
2022/04/23 01:31:25;;;;;;;10.93;4.38;;;15.20;99.90;;;;;;5053799;28;20055;-73
2022/04/23 01:33:54;;;;;;;9.70;3.85;;;15.20;99.90;;;;;;5056312;28;20519;-73
2022/04/23 01:36:21;;;;;;;16.83;2.78;;;15.20;99.90;;;;;;5056747;28;20527;-74
2022/04/23 01:38:49;;;;;;;11.90;3.28;;;15.30;99.90;;;;;;5040850;28;20145;-74
2022/04/23 01:41:17;;;;;;;14.55;3.20;;;15.30;99.90;;;;;;5072217;28;20056;-76
2022/04/23 01:43:44;;;;;;;10.65;4.25;;;15.40;99.90;;;;;;5056186;28;20051;-73
2022/04/23 01:46:12;;;;;;;14.05;4.10;;;15.40;99.90;;;;;;5056167;28;20138;-74
2022/04/23 01:48:39;;;;;;;8.25;3.33;;;15.40;99.90;;;;;;5072924;28;20119;-74
2022/04/23 01:51:07;;;;;;;9.00;2.67;;;15.40;99.90;;;;;;5072430;28;20379;-74
2022/04/23 01:53:35;;;;;;;6.80;2.97;;;15.40;99.90;;;;;;5056254;28;20057;-74
2022/04/23 01:56:02;;;;;;;14.40;4.38;;;15.50;99.90;;;;;;5094021;28;20047;-73
2022/04/23 01:58:30;;;;;;;7.72;3.10;;;15.50;99.90;;;;;;5093783;28;20052;-73
2022/04/23 02:01:00;;;;;;;6.68;2.75;;;15.50;99.90;;;;;;5058506;28;20069;-73
2022/04/23 02:03:29;;;;;;;7.65;3.63;;;15.50;99.90;;;;;;5056870;28;20055;-74
2022/04/23 02:05:57;;;;;;;12.27;3.83;;;15.60;99.90;;;;;;5057341;28;20083;-74
2022/04/23 02:08:24;;;;;;;21.77;6.15;;;15.60;99.90;;;;;;5040537;28;20124;-74
2022/04/23 02:10:52;;;;;;;17.05;5.63;;;15.60;99.90;;;;;;5072905;28;20076;-74
2022/04/23 02:13:20;;;;;;;20.15;6.15;;;15.60;99.90;;;;;;5073134;28;20047;-74
2022/04/23 02:15:47;;;;;;;17.83;6.50;;;15.60;99.90;;;;;;5072597;28;20110;-73
2022/04/23 02:18:16;;;;;;;14.52;4.88;;;15.60;99.90;;;;;;5039760;28;20110;-74
2022/04/23 02:20:44;;;;;;;9.98;4.50;;;15.60;99.90;;;;;;5056683;28;20056;-76
2022/04/23 02:23:12;;;;;;;14.70;4.05;;;15.60;99.90;;;;;;5055977;28;20557;-74
2022/04/23 02:25:39;;;;;;;5.68;2.60;;;15.60;99.90;;;;;;5072672;28;20607;-74
2022/04/23 02:28:07;;;;;;;4.97;2.00;;;15.60;99.90;;;;;;5039742;28;20063;-73
2022/04/23 02:30:35;;;;;;;7.72;1.65;;;15.50;99.90;;;;;;5090993;28;20044;-74
2022/04/23 02:33:02;;;;;;;5.38;2.10;;;15.50;99.90;;;;;;5055863;28;20044;-73
2022/04/23 02:35:34;;;;;;;5.65;2.75;;;15.50;99.90;;;;;;5072823;28;20074;-73
2022/04/23 02:38:04;;;;;;;4.15;2.08;;;15.50;99.90;;;;;;5072643;28;20075;-73
2022/04/23 02:40:32;;;;;;;3.85;1.70;;;15.50;99.90;;;;;;5039312;28;20567;-74
2022/04/23 02:43:02;;;;;;;8.90;2.17;;;15.60;99.90;;;;;;5072537;28;20072;-73
2022/04/23 02:45:30;;;;;;;3.80;1.70;;;15.60;99.90;;;;;;5072396;28;20138;-74
2022/04/23 02:47:58;;;;;;;3.95;1.80;;;15.60;99.90;;;;;;5071374;28;20052;-75
2022/04/23 02:50:36;;;;;;;5.57;1.83;;;15.70;99.90;;;;;;5051437;28;20140;-74
2022/04/23 02:53:05;;;;;;;6.72;2.78;;;15.60;99.90;;;;;;5052616;28;20361;-73
2022/04/23 02:55:34;;;;;;;5.00;1.83;;;15.60;99.90;;;;;;5036276;28;20462;-74
2022/04/23 02:58:09;;;;;;;6.40;2.90;;;15.60;99.90;;;;;;5036256;28;20052;-73
2022/04/23 03:00:39;;;;;;;4.78;1.80;;;15.60;99.90;;;;;;5054988;28;20399;-74
2022/04/23 03:03:10;;;;;;;3.47;1.42;;;15.60;99.90;;;;;;5035629;28;20040;-74
2022/04/23 03:05:42;;;;;;;4.60;1.45;;;15.60;99.90;;;;;;5019661;28;20048;-75
2022/04/23 03:08:11;;;;;;;5.65;1.90;;;15.60;99.90;;;;;;5052107;28;20090;-75
2022/04/23 03:10:40;;;;;;;5.20;1.95;;;15.60;99.90;;;;;;5052254;28;20056;-74
2022/04/23 03:13:08;;;;;;;6.40;2.38;;;15.60;99.90;;;;;;5035120;28;20063;-74
2022/04/23 03:15:36;;;;;;;5.72;2.08;;;15.60;99.90;;;;;;5051926;28;20555;-74
2022/04/23 03:18:08;;;;;;;4.20;2.25;;;15.70;99.90;;;;;;5035345;28;20045;-74
2022/04/23 03:20:41;;;;;;;3.90;2.35;;;15.70;99.90;;;;;;5019888;28;20098;-74
2022/04/23 03:23:09;;;;;;;5.95;1.65;;;15.70;99.90;;;;;;5051502;28;20082;-74
2022/04/23 03:25:36;;;;;;;4.47;1.95;;;15.60;99.90;;;;;;5035948;28;20056;-74
2022/04/23 03:28:04;;;;;;;3.17;1.45;;;15.60;99.90;;;;;;5035751;28;20143;-74
2022/04/23 03:30:32;;;;;;;6.28;2.08;;;15.50;99.90;;;;;;5019495;28;20049;-74
2022/04/23 03:33:00;;;;;;;5.60;1.90;;;15.50;99.90;;;;;;5051749;28;20094;-75
2022/04/23 03:35:27;;;;;;;4.75;1.73;;;15.50;99.90;;;;;;5052249;28;20449;-74
2022/04/23 03:37:58;;;;;;;6.55;2.20;;;15.50;99.90;;;;;;5051854;28;20055;-74
2022/04/23 03:40:25;;;;;;;5.43;1.98;;;15.40;99.90;;;;;;5035907;28;20052;-74
2022/04/23 03:42:53;;;;;;;4.18;2.10;;;15.40;99.90;;;;;;5034697;28;20045;-74
2022/04/23 03:45:22;;;;;;;3.78;1.80;;;15.40;99.90;;;;;;5062473;28;20044;-74
2022/04/23 03:47:50;;;;;;;6.53;2.13;;;15.40;99.90;;;;;;5072208;28;20048;-74
2022/04/23 03:50:18;;;;;;;8.20;2.28;;;15.40;99.90;;;;;;5038620;28;20048;-74
2022/04/23 03:52:46;;;;;;;6.65;2.47;;;15.40;99.90;;;;;;5038722;28;20788;-75
2022/04/23 03:55:13;;;;;;;4.13;2.17;;;15.40;99.90;;;;;;5072638;28;20058;-74
2022/04/23 03:57:49;;;;;;;3.10;1.70;;;15.40;99.90;;;;;;5071464;28;20131;-74
2022/04/23 04:00:22;;;;;;;3.28;2.05;;;15.30;99.90;;;;;;5055037;28;20045;-74
2022/04/23 04:02:50;;;;;;;7.57;1.98;;;15.40;99.90;;;;;;5037963;28;20047;-74
2022/04/23 04:05:18;;;;;;;4.43;1.80;;;15.40;99.90;;;;;;5071842;28;20123;-75
2022/04/23 04:07:47;;;;;;;5.45;2.92;;;15.30;99.90;;;;;;5071611;28;20066;-75
2022/04/23 04:10:23;;;;;;;2.97;1.65;;;15.30;99.90;;;;;;5070979;28;20091;-74
2022/04/23 04:12:52;;;;;;;10.43;2.03;;;15.20;99.90;;;;;;5055399;28;20146;-73
2022/04/23 04:15:20;;;;;;;7.07;2.20;;;15.20;99.90;;;;;;5035176;28;20056;-74
2022/04/23 04:17:51;;;;;;;3.70;1.75;;;15.20;99.90;;;;;;5086410;28;20040;-74
2022/04/23 04:20:21;;;;;;;2.80;2.10;;;15.20;99.90;;;;;;5056302;28;20382;-75
2022/04/23 04:22:49;;;;;;;3.72;2.00;;;15.10;99.90;;;;;;5058726;28;20036;-75
2022/04/23 04:25:17;;;;;;;3.17;1.95;;;15.10;99.90;;;;;;5049841;28;20529;-75
2022/04/23 04:27:45;;;;;;;4.03;1.95;;;15.10;99.90;;;;;;5101558;28;20067;-76
2022/04/23 04:30:13;;;;;;;6.03;2.00;;;15.10;99.90;;;;;;5059196;28;20048;-74
2022/04/23 04:32:41;;;;;;;4.95;2.85;;;15.10;99.90;;;;;;5068316;28;20071;-76
2022/04/23 04:35:10;;;;;;;3.22;1.77;;;15.20;99.90;;;;;;5067740;28;20052;-75
2022/04/23 04:37:39;;;;;;;3.08;2.00;;;15.20;99.90;;;;;;5048286;28;20502;-75
2022/04/23 04:40:07;;;;;;;10.65;2.70;;;15.20;99.90;;;;;;5077287;28;20097;-75
2022/04/23 04:42:35;;;;;;;6.40;1.73;;;15.40;99.90;;;;;;5076108;28;20706;-75
2022/04/23 04:45:04;;;;;;;5.88;2.10;;;15.40;99.90;;;;;;5083918;28;20043;-75
2022/04/23 04:47:31;;;;;;;4.93;2.00;;;15.50;99.90;;;;;;5081444;28;20047;-76
2022/04/23 04:49:59;;;;;;;3.63;1.80;;;15.70;99.90;;;;;;5086721;28;20110;-75
2022/04/23 04:52:27;;;;;;;4.68;2.00;;;15.80;99.90;;;;;;5060887;28;20052;-75
2022/04/23 04:54:56;;;;;;;6.72;2.08;;;16.00;99.90;;;;;;5074917;28;20044;-74
2022/04/23 04:57:24;;;;;;;4.57;1.75;;;16.10;99.90;;;;;;5074778;28;20052;-74
2022/04/23 04:59:51;;;;;;;4.70;2.75;;;16.20;99.90;;;;;;5058186;28;20127;-74
2022/04/23 05:02:19;;;;;;;4.25;1.70;;;16.40;99.90;;;;;;5075017;28;20044;-74
2022/04/23 05:04:46;;;;;;;3.28;2.25;;;16.50;99.90;;;;;;5092524;28;20048;-74
2022/04/23 05:07:14;;;;;;;4.35;2.03;;;16.60;99.90;;;;;;5041131;28;20066;-75
2022/04/23 05:09:42;;;;;;;8.63;2.45;;;16.80;99.90;;;;;;5058096;28;20112;-74
2022/04/23 05:12:10;;;;;;;5.75;2.10;;;17.00;99.90;;;;;;5041148;28;20052;-74
2022/04/23 05:14:37;;;;;;;5.80;2.20;;;17.10;99.90;;;;;;5041123;28;20040;-74
2022/04/23 05:17:07;;;;;;;6.32;2.05;;;17.00;99.90;;;;;;5092031;28;20040;-74
2022/04/23 05:19:35;;;;;;;6.53;3.08;;;17.20;99.90;;;;;;5092276;28;20050;-74
2022/04/23 05:22:03;;;;;;;6.63;2.80;;;17.30;99.90;;;;;;5055821;28;20511;-74
2022/04/23 05:24:30;;;;;;;13.45;3.15;;;17.50;99.90;;;;;;5073804;28;20044;-74
2022/04/23 05:26:58;;;;;;;4.75;2.30;;;17.60;99.90;;;;;;5074090;28;20105;-75
2022/04/23 05:29:25;;;;;;;9.05;2.30;;;17.70;99.90;;;;;;5041187;28;20055;-74
2022/04/23 05:31:53;;;;;;;7.60;2.88;;;17.90;99.90;;;;;;5074245;28;20482;-74
2022/04/23 05:34:20;;;;;;;6.40;2.17;;;18.00;99.90;;;;;;5057641;28;20044;-75
2022/04/23 05:36:48;;;;;;;6.68;3.03;;;18.20;99.90;;;;;;5056727;28;20142;-75
2022/04/23 05:39:16;;;;;;;7.72;2.70;;;18.30;99.90;;;;;;5074085;28;20042;-75
2022/04/23 05:41:46;;;;;;;6.07;3.13;;;18.50;99.90;;;;;;5057392;28;20119;-74
2022/04/23 05:44:13;;;;;;;6.90;2.80;;;18.60;99.90;;;;;;5073198;28;20436;-75
2022/04/23 05:46:41;;;;;;;6.00;1.88;;;18.80;99.90;;;;;;5073814;28;20043;-75
2022/04/23 05:49:08;;;;;;;7.20;2.95;;;18.90;99.90;;;;;;5057121;28;20428;-74
2022/04/23 05:51:36;;;;;;;11.40;2.28;;;19.00;99.90;;;;;;5056981;28;20190;-75
2022/04/23 05:54:03;;;;;;;4.55;2.00;;;19.10;99.90;;;;;;5091720;28;20545;-76
2022/04/23 05:56:31;;;;;;;7.18;2.20;;;19.20;99.90;;;;;;5073854;28;20056;-75
2022/04/23 05:58:59;;;;;;;4.72;2.60;;;19.30;99.90;;;;;;5057042;28;20122;-75
2022/04/23 06:01:27;;;;;;;6.25;1.98;;;19.40;99.90;;;;;;5056721;28;20048;-75
2022/04/23 06:03:54;;;;;;;4.38;1.60;;;19.60;99.90;;;;;;5056439;28;20452;-75
2022/04/23 06:06:22;;;;;;;6.88;1.63;;;19.70;99.90;;;;;;5073363;28;20054;-75
2022/04/23 06:08:50;;;;;;;4.93;2.58;;;19.70;99.90;;;;;;5039812;28;20048;-75
2022/04/23 06:11:18;;;;;;;3.63;1.70;;;19.90;99.90;;;;;;5071537;28;20050;-76
2022/04/23 06:13:45;;;;;;;3.42;1.63;;;20.10;99.90;;;;;;5091258;28;20050;-75
2022/04/23 06:16:13;;;;;;;7.50;1.77;;;20.20;99.90;;;;;;5073367;28;20044;-75
2022/04/23 06:18:41;;;;;;;4.95;2.28;;;20.20;99.90;;;;;;5056698;28;20047;-75
2022/04/23 06:21:09;;;;;;;4.50;1.50;;;20.40;99.90;;;;;;5039782;28;20488;-76
2022/04/23 06:23:36;;;;;;;3.55;1.73;;;20.50;99.90;;;;;;5056305;28;20089;-75
2022/04/23 06:26:04;;;;;;;5.40;1.98;;;20.60;99.90;;;;;;5056566;28;20044;-75
2022/04/23 06:28:31;;;;;;;6.28;2.20;;;20.60;99.90;;;;;;5056481;28;20044;-75
2022/04/23 06:30:59;;;;;;;3.15;1.58;;;20.80;99.90;;;;;;5056172;28;20059;-75
2022/04/23 06:33:27;;;;;;;4.65;2.03;;;21.00;99.90;;;;;;5056692;28;20507;-76
2022/04/23 06:35:54;;;;;;;4.90;1.92;;;21.10;99.90;;;;;;5056552;28;20164;-76
2022/04/23 06:38:22;;;;;;;3.10;1.52;;;21.20;99.90;;;;;;5072866;28;20043;-76
2022/04/23 06:40:49;;;;;;;4.05;1.75;;;21.30;99.90;;;;;;5090957;28;20040;-76
2022/04/23 06:43:17;;;;;;;5.65;1.88;;;21.40;99.80;;;;;;5072515;28;20056;-76
2022/04/23 06:45:45;;;;;;;4.97;1.55;;;21.40;99.20;;;;;;5055153;28;20044;-76
2022/04/23 06:48:12;;;;;;;4.10;1.67;;;21.50;99.30;;;;;;5072747;28;20093;-75
2022/04/23 06:50:40;;;;;;;5.43;1.48;;;21.60;99.20;;;;;;5055986;28;20086;-76
2022/04/23 06:53:08;;;;;;;4.18;1.95;;;21.70;98.70;;;;;;5056073;28;20056;-76
2022/04/23 06:55:36;;;;;;;4.28;1.50;;;21.80;98.50;;;;;;5056264;28;20054;-77
2022/04/23 06:58:04;;;;;;;3.55;1.48;;;21.80;98.10;;;;;;5072870;28;20050;-76
2022/04/23 07:00:31;;;;;;;5.03;1.98;;;21.90;97.90;;;;;;5073126;28;20048;-76
2022/04/23 07:02:59;;;;;;;3.78;1.70;;;22.00;97.40;;;;;;5038661;28;20059;-76
2022/04/23 07:05:27;;;;;;;7.20;3.17;;;22.10;97.30;;;;;;5090768;28;20101;-77
2022/04/23 07:08:01;;;;;;;6.82;1.98;;;22.10;97.00;;;;;;5053590;28;20044;-75
2022/04/23 07:10:30;;;;;;;5.88;3.35;;;22.20;96.70;;;;;;5055493;28;20523;-76
2022/04/23 07:12:59;;;;;;;6.38;1.75;;;22.30;96.10;;;;;;5072115;28;20040;-76
2022/04/23 07:15:28;;;;;;;2.15;1.45;;;22.40;95.90;;;;;;5055492;28;20058;-77
2022/04/23 07:17:56;;;;;;;4.07;2.33;;;22.60;95.70;;;;;;5055395;28;20055;-76
2022/04/23 07:20:24;;;;;;;4.18;1.58;;;22.80;95.30;;;;;;5072831;28;20473;-75
2022/04/23 07:25:38;;;;;;;4.95;1.80;;;23.10;94.80;;;;;;5055661;28;20268;-75
2022/04/23 07:28:07;;;;;;;4.95;1.67;;;23.10;94.80;;;;;;5039525;28;20147;-74
2022/04/23 07:30:35;;;;;;;1.90;1.55;;;23.30;94.30;;;;;;5071683;28;20098;-75
2022/04/23 07:33:03;;;;;;;3.55;1.92;;;23.40;94.10;;;;;;5071732;28;20143;-75
2022/04/23 07:38:37;;;;;;;7.90;2.65;;;23.70;93.30;;;;;;5028075;28;20068;-75
2022/04/23 07:41:05;;;;;;;3.60;1.40;;;23.60;93.20;;;;;;5010612;28;20053;-75
2022/04/23 07:43:33;;;;;;;2.92;1.45;;;23.60;93.40;;;;;;5028293;28;20056;-75
2022/04/23 07:46:01;;;;;;;2.50;1.25;;;23.60;92.60;;;;;;5039279;28;20486;-78
2022/04/23 07:48:29;;;;;;;4.25;1.38;;;23.70;92.40;;;;;;5072061;28;20101;-75
2022/04/23 07:50:56;;;;;;;4.88;1.77;;;23.90;92.40;;;;;;5055066;28;20498;-78
2022/04/23 07:53:24;;;;;;;9.75;1.98;;;24.10;92.30;;;;;;5055677;28;20063;-77
2022/04/23 07:55:52;;;;;;;1.92;1.25;;;24.00;92.40;;;;;;5089233;28;20040;-76
2022/04/23 07:58:20;;;;;;;4.82;1.80;;;23.90;92.80;;;;;;5071577;28;20040;-76
2022/04/23 08:00:48;;;;;;;6.65;1.67;;;23.80;92.70;;;;;;5056951;28;20040;-77
2022/04/23 08:03:16;;;;;;;1.83;1.30;;;23.60;92.10;;;;;;5094025;28;20091;-76
2022/04/23 08:05:43;;;;;;;4.50;1.95;;;23.60;91.50;;;;;;5055065;28;20513;-75
2022/04/23 08:08:11;;;;;;;2.13;1.17;;;23.70;91.50;;;;;;5038758;28;20130;-75
2022/04/23 08:10:39;;;;;;;5.35;1.83;;;23.80;91.60;;;;;;5039362;28;20473;-75
2022/04/23 08:13:06;;;;;;;1.83;1.10;;;23.70;91.90;;;;;;5055067;28;20049;-76
2022/04/23 08:15:34;;;;;;;3.95;1.92;;;23.50;92.10;;;;;;5038537;28;20036;-75
2022/04/23 08:18:01;;;;;;;3.35;1.17;;;23.30;91.90;;;;;;5038791;28;20051;-76
2022/04/23 08:20:30;;;;;;;3.08;1.50;;;23.00;92.40;;;;;;5055406;28;20056;-81
2022/04/23 08:23:00;;;;;;;4.05;1.90;;;22.80;92.80;;;;;;5038786;28;20045;-76
2022/04/23 08:25:27;;;;;;;6.50;1.60;;;22.80;92.70;;;;;;5072334;28;20087;-74
2022/04/23 08:30:43;;;;;;;7.53;1.70;;;22.50;92.80;;;;;;5071966;28;20064;-77
2022/04/23 08:33:11;;;;;;;4.10;1.80;;;22.30;93.00;;;;;;5038642;28;20075;-76
2022/04/23 08:35:39;;;;;;;2.08;1.50;;;22.10;93.00;;;;;;5038271;28;20056;-75
2022/04/23 08:38:07;;;;;;;4.30;1.55;;;22.10;92.70;;;;;;5055207;28;20102;-75
2022/04/23 08:40:45;;;;;;;2.50;1.48;;;22.40;92.40;;;;;;5022255;28;20125;-76
2022/04/23 08:43:13;;;;;;;2.85;1.48;;;22.80;92.10;;;;;;5022841;28;20045;-76
2022/04/23 08:45:40;;;;;;;2.88;1.40;;;23.00;91.30;;;;;;5073380;28;20098;-76
2022/04/23 08:48:11;;;;;;;3.80;1.25;;;23.20;91.30;;;;;;5022227;28;20033;-77
2022/04/23 08:50:42;;;;;;;4.53;1.50;;;23.50;91.30;;;;;;5055088;28;20513;-78
2022/04/23 08:53:20;;;;;;;2.83;1.23;;;23.80;90.90;;;;;;5038579;28;20461;-77
2022/04/23 08:55:53;;;;;;;4.13;1.60;;;23.90;90.10;;;;;;5038141;28;20055;-75
2022/04/23 08:58:21;;;;;;;2.10;1.13;;;23.80;89.80;;;;;;5065826;28;20040;-75
2022/04/23 09:00:49;;;;;;;4.93;1.75;;;23.70;89.70;;;;;;5057777;28;20498;-76
2022/04/23 09:03:17;;;;;;;4.50;1.60;;;23.70;90.10;;;;;;5074935;28;20117;-76
2022/04/23 09:05:51;;;;;;;2.97;1.02;;;23.80;90.00;;;;;;5058012;28;20520;-75
2022/04/23 09:08:19;;;;;;;2.40;1.33;;;23.90;89.70;;;;;;5058274;28;20052;-75
2022/04/23 09:10:54;;;;;;;3.83;1.08;;;24.10;89.40;;;;;;5041358;28;20060;-76
2022/04/23 09:13:30;;;;;;;3.33;1.50;;;24.30;89.00;;;;;;5056906;28;20128;-76
2022/04/23 09:24:45;;;;;;;3.05;0.98;;;23.60;90.10;;;;;;5057037;28;20048;-75
2022/04/23 09:27:13;;;;;;;4.22;1.67;;;23.50;90.00;;;;;;5074472;28;20459;-75
2022/04/23 09:30:02;;;;;;;2.85;1.70;;;23.30;89.90;;;;;;5074714;28;20383;-76
2022/04/23 09:32:30;;;;;;;2.38;1.30;;;23.30;90.10;;;;;;5074597;28;20093;-75
2022/04/23 09:35:12;;;;;;;1.88;1.15;;;23.50;90.20;;;;;;5057288;28;20438;-75
2022/04/23 09:40:27;;;;;;;3.85;1.83;;;23.90;89.50;;;;;;5057664;28;20048;-75
2022/04/23 09:43:01;;;;;;;1.38;0.65;;;24.10;89.10;;;;;;5073276;28;20067;-75
2022/04/23 09:45:30;;;;;;;2.53;1.42;;;24.20;88.60;;;;;;5057014;28;20527;-75
2022/04/23 09:48:04;;;;;;;2.45;0.85;;;24.30;88.80;;;;;;5057439;28;20394;-76
2022/04/23 09:50:39;;;;;;;5.38;1.70;;;24.50;88.20;;;;;;5041393;28;20051;-75
2022/04/23 09:53:17;;;;;;;2.83;1.25;;;24.40;87.00;;;;;;5057794;28;20437;-75
2022/04/23 09:55:45;;;;;;;2.25;1.67;;;24.20;86.90;;;;;;5057444;28;20094;-76
2022/04/23 09:58:14;;;;;;;2.97;1.27;;;24.20;88.10;;;;;;5089500;28;20064;-75
2022/04/23 10:00:44;;;;;;;3.85;1.40;;;24.10;88.10;;;;;;5056963;28;20612;-76
2022/04/23 10:03:13;;;;;;;3.28;1.73;;;23.90;87.80;;;;;;5073287;28;20131;-76
2022/04/23 10:05:48;;;;;;;5.55;3.35;;;23.80;88.20;;;;;;5056795;28;20050;-77
2022/04/23 10:08:18;;;;;;;4.20;2.38;;;23.40;88.20;;;;;;5057100;28;20068;-76
2022/04/23 10:11:04;;;;;;;3.30;1.38;;;23.10;88.90;;;;;;5056682;28;20056;-77
2022/04/23 10:13:33;;;;;;;2.03;1.00;;;22.70;89.70;;;;;;5056498;28;20044;-76
2022/04/23 10:16:03;;;;;;;3.10;1.30;;;22.50;90.20;;;;;;5091437;28;20727;-76
2022/04/23 10:18:32;;;;;;;1.80;1.00;;;22.00;90.30;;;;;;5056578;28;20057;-76
2022/04/23 10:21:07;;;;;;;3.90;2.13;;;21.80;90.50;;;;;;5072999;28;20111;-77
2022/04/23 10:23:58;;;;;;;3.13;1.37;;;21.70;90.90;;;;;;5072944;28;20048;-76
2022/04/23 10:26:33;;;;;;;2.00;1.20;;;21.60;91.10;;;;;;5072960;28;20048;-76
2022/04/23 10:29:22;;;;;;;2.60;1.38;;;21.40;91.20;;;;;;5072404;28;20097;-77
2022/04/23 10:32:09;;;;;;;1.83;1.17;;;21.30;91.10;;;;;;5056505;28;20088;-79
2022/04/23 10:34:38;;;;;;;3.10;1.05;;;21.20;91.10;;;;;;5073523;28;20081;-77
2022/04/23 10:37:25;;;;;;;3.25;1.85;;;21.20;91.20;;;;;;5039084;28;20056;-77
2022/04/23 10:39:53;;;;;;;1.60;0.93;;;21.10;91.30;;;;;;5072522;28;20048;-77
2022/04/23 10:42:22;;;;;;;4.35;1.40;;;21.00;91.40;;;;;;5055832;28;20410;-77
2022/04/23 10:44:51;;;;;;;2.95;1.27;;;20.80;91.50;;;;;;5071969;28;20056;-77
2022/04/23 10:47:30;;;;;;;4.25;1.77;;;20.90;91.50;;;;;;5055680;28;20047;-76
2022/04/23 10:50:18;;;;;;;1.48;0.80;;;20.90;91.50;;;;;;5072264;28;20490;-77
2022/04/23 10:52:49;;;;;;;4.28;2.03;;;21.10;91.50;;;;;;5053885;28;20036;-78
2022/04/23 10:55:17;;;;;;;2.50;1.35;;;21.10;91.20;;;;;;5072640;28;20048;-76
2022/04/23 10:57:53;;;;;;;3.83;1.65;;;20.90;91.20;;;;;;5072966;28;20041;-77
2022/04/23 11:00:30;;;;;;;2.90;1.27;;;20.80;91.50;;;;;;5039363;28;20147;-77
2022/04/23 11:03:07;;;;;;;8.57;5.80;;;20.60;91.60;;;;;;5055748;28;20169;-78
2022/04/23 11:14:39;;;;;;;3.55;2.00;;;20.90;91.70;;;;;;5055488;28;20375;-77
2022/04/23 11:17:14;;;;;;;5.03;3.03;;;21.20;91.60;;;;;;5055905;28;20044;-76
2022/04/23 11:19:42;;;;;;;6.38;1.95;;;21.30;91.20;;;;;;5039023;28;20225;-77
2022/04/23 11:22:10;;;;;;;2.80;1.85;;;21.30;91.20;;;;;;5056207;28;20059;-77
2022/04/23 11:24:39;;;;;;;5.05;2.95;;;21.30;91.00;;;;;;5071639;28;20044;-77
2022/04/23 11:27:08;;;;;;;4.25;2.42;;;21.20;90.90;;;;;;5039000;28;20603;-76
2022/04/23 11:29:39;;;;;;;2.85;1.33;;;21.10;91.20;;;;;;5071873;28;20036;-77
2022/04/23 11:32:08;;;;;;;5.53;1.95;;;20.90;91.20;;;;;;5071978;28;20158;-77
2022/04/23 11:34:39;;;;;;;7.65;2.80;;;20.80;91.40;;;;;;5089337;28;20238;-76
2022/04/23 11:37:11;;;;;;;4.05;1.80;;;20.70;91.70;;;;;;5038416;28;20044;-77
2022/04/23 11:39:39;;;;;;;6.80;3.38;;;20.70;91.90;;;;;;5054818;28;20040;-78
2022/04/23 11:42:07;;;;;;;4.60;2.17;;;20.80;92.10;;;;;;5072401;28;20051;-77
2022/04/23 11:44:46;;;;;;;3.13;1.30;;;21.00;91.70;;;;;;5055395;28;20568;-76
2022/04/23 11:47:28;;;;;;;3.90;1.40;;;21.10;92.10;;;;;;5072132;28;20555;-78
2022/04/23 11:50:12;;;;;;;3.15;1.30;;;21.20;91.60;;;;;;5072272;28;20048;-77
2022/04/23 11:52:45;;;;;;;2.70;1.08;;;21.50;91.50;;;;;;5038930;28;20064;-77
2022/04/23 11:55:24;;;;;;;3.67;1.60;;;21.90;91.20;;;;;;5072337;28;20040;-76
2022/04/23 11:57:56;;;;;;;2.70;1.30;;;22.10;91.10;;;;;;5055416;28;20052;-77
2022/04/23 12:00:25;;;;;;;2.40;1.38;;;22.30;90.90;;;;;;5055251;28;20052;-77
2022/04/23 12:02:54;;;;;;;5.13;1.42;;;22.20;91.10;;;;;;5055552;28;20394;-76
2022/04/23 12:05:29;;;;;;;4.03;1.67;;;22.10;91.20;;;;;;5072394;28;20049;-76
2022/04/23 12:07:58;;;;;;;3.42;0.95;;;22.00;91.20;;;;;;5054809;28;20052;-76
2022/04/23 12:10:28;;;;;;;2.60;1.55;;;22.00;91.30;;;;;;5038958;28;20085;-72
2022/04/23 12:13:00;;;;;;;3.13;1.10;;;21.90;91.40;;;;;;5055410;28;20056;-72
2022/04/23 12:15:28;;;;;;;1.80;1.20;;;21.80;91.50;;;;;;5055801;28;20166;-72
2022/04/23 12:17:58;;;;;;;4.05;1.50;;;21.70;91.60;;;;;;5056105;28;20421;-71
2022/04/23 12:20:27;;;;;;;3.95;1.10;;;21.70;91.70;;;;;;5055648;28;20040;-73
2022/04/23 12:23:02;;;;;;;4.28;1.45;;;21.60;91.70;;;;;;5038666;28;20051;-73
2022/04/23 12:25:31;;;;;;;3.70;1.70;;;21.60;91.90;;;;;;5054986;28;20052;-74
2022/04/23 12:42:30;;;;;;;3.78;1.40;;;21.60;92.30;;;;;;5055663;28;20084;-74
2022/04/23 12:44:58;;;;;;;7.35;1.75;;;21.60;92.50;;;;;;5071732;28;20048;-72
2022/04/23 12:47:35;;;;;;;5.85;2.05;;;21.50;92.40;;;;;;5057578;28;20063;-72
2022/04/23 12:50:07;;;;;;;4.57;2.22;;;21.40;92.50;;;;;;5057789;28;20051;-71
2022/04/23 12:52:38;;;;;;;6.82;2.17;;;21.40;92.60;;;;;;5058739;28;20063;-72
2022/04/23 12:55:15;;;;;;;2.58;1.40;;;21.20;92.80;;;;;;5041908;28;20067;-72
2022/04/23 12:57:51;;;;;;;6.03;2.55;;;21.20;92.90;;;;;;5058701;28;20413;-73
2022/04/23 13:00:21;;;;;;;7.30;1.80;;;21.00;92.80;;;;;;5074949;28;20562;-72
2022/04/23 13:02:57;;;;;;;8.75;2.55;;;21.00;93.10;;;;;;5093012;28;20048;-73
2022/04/23 13:05:26;;;;;;;8.10;3.10;;;20.80;93.10;;;;;;5056977;28;20070;-71
2022/04/23 13:10:40;;;;;;;4.07;1.23;;;21.00;93.20;;;;;;5074586;28;20040;-72
2022/04/23 13:13:09;;;;;;;6.85;1.80;;;21.10;93.20;;;;;;5047254;28;20040;-71
2022/04/23 13:15:37;;;;;;;7.57;1.50;;;21.00;93.10;;;;;;5039312;28;20056;-74
2022/04/23 13:18:06;;;;;;;4.70;2.00;;;21.00;93.30;;;;;;5038314;28;20056;-72
2022/04/23 13:20:34;;;;;;;3.13;1.27;;;20.90;93.00;;;;;;5055142;28;20129;-72
2022/04/23 13:23:02;;;;;;;3.80;1.65;;;20.90;92.90;;;;;;5054561;28;20147;-71
2022/04/23 13:25:30;;;;;;;7.00;1.95;;;20.80;93.50;;;;;;5055097;28;20064;-71
2022/04/23 13:27:57;;;;;;;8.35;1.85;;;20.90;93.70;;;;;;5064316;28;20056;-72
2022/04/23 13:30:25;;;;;;;5.78;1.98;;;20.90;93.60;;;;;;5073471;28;20143;-71
2022/04/23 13:32:54;;;;;;;5.28;1.90;;;20.90;93.70;;;;;;5026307;28;20067;-71
2022/04/23 13:35:21;;;;;;;6.15;1.95;;;20.90;93.80;;;;;;5053873;28;20047;-71
2022/04/23 13:37:52;;;;;;;6.75;3.08;;;21.00;94.00;;;;;;5049149;28;20478;-71
2022/04/23 13:40:20;;;;;;;4.72;1.80;;;20.80;93.70;;;;;;5038367;28;20494;-71
2022/04/23 13:42:51;;;;;;;6.35;2.40;;;20.60;93.70;;;;;;5038258;28;20060;-73
2022/04/23 13:45:19;;;;;;;5.90;2.20;;;20.40;94.10;;;;;;5064830;28;20045;-71